ENBL/FDE METAR and TAF weather

Enter ICAO airport designator
Station Type Date Time Source
ENBL METAR 2019/12/15 21:50 UTC NOAA

ENBL 152150Z 35002KT 9999 BKN033 01/M02 Q0985


Station Type Date Time Source
ENBL Decoded METAR 2019/12/15 21:50 UTC NOAA

Forde / Bringeland, Norway (ENBL) 61-27N 005-52E
Dec 15, 2019 - 04:50 PM EST / 2019.12.15 2150 UTC
Wind: from the N (350 degrees) at 2 MPH (2 KT):0
Visibility: greater than 7 mile(s):0
Sky conditions: mostly cloudy
Temperature: 33 F (1 C)
Dew Point: 28 F (-2 C)
Relative Humidity: 80%
Pressure (altimeter): 29.09 in. Hg (0985 hPa)
ob: ENBL 152150Z 35002KT 9999 BKN033 01/M02 Q0985
cycle: 22

Station Type Date Time Source
ENBL TAF UTC NOAA

Error!

Example: see airport list